Time;durP1;ratioP1;P1;durP2;ratioP2;P2;SDS_P1;SDS_P2;PMS_P1;PMS_P2;Temp;Humidity;BMP_temperature;BMP_pressure;BME280_temperature;BME280_humidity;BME280_pressure;Samples;Min_cycle;Max_cycle;Signal;HPM_P1;HPM_P2
2021/08/08 13:01:48;;;;;;;6.83;5.90;;;20.90;98.30;;;;;;4848690;24;20455;-84
2021/08/08 17:48:49;;;;;;;7.07;4.40;;;20.00;98.30;;;;;;5057141;22;2689410;-82
2021/08/08 17:50:53;;;;;;;5.97;4.30;;;20.00;98.30;;;;;;5226718;22;20207;-82
2021/08/08 17:52:57;;;;;;;5.97;4.37;;;19.90;98.30;;;;;;5231998;22;20757;-82
2021/08/08 17:55:02;;;;;;;6.60;4.30;;;19.90;98.30;;;;;;5231885;22;20444;-82
2021/08/08 17:57:07;;;;;;;4.80;4.30;;;19.80;98.30;;;;;;5230451;22;20437;-82
2021/08/08 17:59:12;;;;;;;7.67;4.97;;;19.80;98.30;;;;;;5208956;22;20477;-82
2021/08/08 18:01:16;;;;;;;10.67;5.10;;;19.80;98.30;;;;;;5205623;22;20433;-82
2021/08/08 18:03:20;;;;;;;9.40;4.23;;;19.70;98.30;;;;;;5206360;22;20422;-83
2021/08/08 18:05:54;;;;;;;4.43;4.03;;;19.70;98.30;;;;;;5206292;22;20423;-82
2021/08/08 18:08:18;;;;;;;7.43;5.30;;;19.70;98.30;;;;;;5207409;22;20434;-82
2021/08/08 18:10:23;;;;;;;7.70;5.23;;;19.70;98.30;;;;;;5209807;22;20419;-82
2021/08/08 18:12:28;;;;;;;10.17;5.40;;;19.60;98.30;;;;;;5207109;22;20442;-83
2021/08/08 18:14:31;;;;;;;6.60;5.13;;;19.60;98.30;;;;;;5207235;22;20423;-82
2021/08/08 18:16:36;;;;;;;7.77;5.70;;;19.50;98.30;;;;;;5205201;22;20447;-82
2021/08/08 18:18:39;;;;;;;4.83;4.43;;;19.40;98.30;;;;;;5207342;22;20467;-82
2021/08/08 18:20:43;;;;;;;5.37;4.30;;;19.50;98.30;;;;;;5205941;22;20449;-82
2021/08/08 18:22:46;;;;;;;6.40;4.57;;;19.50;98.30;;;;;;5207438;22;20911;-81
2021/08/08 18:24:50;;;;;;;6.80;4.17;;;19.40;98.30;;;;;;5197854;22;20427;-81
2021/08/08 18:26:53;;;;;;;8.40;5.07;;;19.40;98.30;;;;;;5197469;22;20426;-81
2021/08/08 18:28:56;;;;;;;6.53;4.50;;;19.30;98.30;;;;;;5205554;22;20442;-81
2021/08/08 18:30:59;;;;;;;6.50;4.80;;;19.30;98.30;;;;;;5206933;22;20419;-82
2021/08/08 18:33:02;;;;;;;5.17;3.90;;;19.30;98.30;;;;;;5197471;22;20423;-81
2021/08/08 18:35:09;;;;;;;5.13;3.73;;;19.20;98.30;;;;;;5197477;22;20411;-82
2021/08/08 18:37:13;;;;;;;7.77;4.47;;;19.20;98.30;;;;;;5197990;22;20443;-81
2021/08/08 18:39:16;;;;;;;5.73;3.73;;;19.20;98.30;;;;;;5196269;22;20526;-82
2021/08/08 18:41:19;;;;;;;5.07;3.80;;;19.20;98.30;;;;;;5206197;22;20676;-80
2021/08/08 18:43:23;;;;;;;5.60;4.17;;;19.20;98.30;;;;;;5205141;22;20490;-83
2021/08/08 18:45:25;;;;;;;8.73;4.43;;;19.10;98.30;;;;;;5205689;22;20506;-82
2021/08/08 18:47:29;;;;;;;5.83;4.40;;;19.10;98.30;;;;;;5205996;22;20415;-84
2021/08/08 18:49:50;;;;;;;5.70;5.00;;;19.10;98.30;;;;;;5205276;22;20843;-81
2021/08/08 18:51:53;;;;;;;6.40;4.43;;;19.10;98.30;;;;;;5204712;22;20411;-83
2021/08/08 18:53:57;;;;;;;8.93;4.20;;;19.00;98.30;;;;;;5196711;22;20415;-81
2021/08/08 18:56:00;;;;;;;6.17;4.33;;;19.00;98.30;;;;;;5203225;22;20418;-82
2021/08/08 18:58:03;;;;;;;6.33;3.93;;;19.00;98.30;;;;;;5202253;22;20439;-82
2021/08/08 19:00:07;;;;;;;7.80;3.77;;;18.90;98.30;;;;;;5202324;22;20454;-81
2021/08/08 19:02:10;;;;;;;5.73;4.27;;;18.90;98.30;;;;;;5201858;22;20418;-81
2021/08/08 19:04:14;;;;;;;6.40;4.13;;;18.90;98.30;;;;;;5205062;22;20411;-84
2021/08/08 19:06:17;;;;;;;5.27;4.43;;;18.90;98.30;;;;;;5196199;22;20446;-81
2021/08/08 19:08:21;;;;;;;8.13;4.47;;;18.90;98.30;;;;;;5196750;22;20529;-81
2021/08/08 19:10:26;;;;;;;6.20;4.40;;;18.80;98.30;;;;;;5205139;22;20725;-81
2021/08/08 19:12:29;;;;;;;6.33;4.57;;;18.80;98.30;;;;;;5196823;22;20423;-81
2021/08/08 19:14:32;;;;;;;8.53;4.13;;;18.80;98.30;;;;;;5205461;22;20426;-81
2021/08/08 19:16:35;;;;;;;5.70;4.50;;;18.70;98.30;;;;;;5195933;22;20422;-81
2021/08/08 19:18:38;;;;;;;7.93;4.50;;;18.70;98.30;;;;;;5195732;22;20511;-83
2021/08/08 19:20:40;;;;;;;8.17;4.87;;;18.70;98.30;;;;;;5195997;22;20427;-81
2021/08/08 19:22:44;;;;;;;4.77;4.37;;;18.70;98.30;;;;;;5204215;22;20419;-81
2021/08/08 19:24:46;;;;;;;9.27;4.90;;;18.70;98.30;;;;;;5197209;22;20454;-80
2021/08/08 19:26:51;;;;;;;6.13;5.07;;;18.70;98.30;;;;;;5204464;22;20468;-80
2021/08/08 19:28:54;;;;;;;6.97;5.20;;;18.70;98.30;;;;;;5196759;22;20443;-81
2021/08/08 19:30:57;;;;;;;6.67;4.70;;;18.70;98.30;;;;;;5194679;22;20948;-82
2021/08/08 19:33:00;;;;;;;8.87;5.00;;;18.70;98.30;;;;;;5204580;22;21087;-81
2021/08/08 19:35:03;;;;;;;6.30;4.80;;;18.60;98.30;;;;;;5196251;22;20419;-82
2021/08/08 19:37:07;;;;;;;7.87;4.77;;;18.70;98.30;;;;;;5195552;22;20449;-82
2021/08/08 19:39:10;;;;;;;5.40;4.43;;;18.60;98.30;;;;;;5204303;22;20533;-82
2021/08/08 19:41:13;;;;;;;5.50;3.90;;;18.60;98.30;;;;;;5203057;22;20437;-82
2021/08/08 19:43:17;;;;;;;9.20;5.00;;;18.60;98.30;;;;;;5194229;22;20430;-81
2021/08/08 19:45:22;;;;;;;9.10;4.60;;;18.60;98.30;;;;;;5204326;22;20438;-82
2021/08/08 19:47:26;;;;;;;7.00;4.50;;;18.60;98.30;;;;;;5194759;22;20470;-82
2021/08/08 19:49:29;;;;;;;6.10;4.10;;;18.60;98.30;;;;;;5195276;22;20434;-81
2021/08/08 19:51:34;;;;;;;6.60;5.23;;;18.50;98.30;;;;;;5203051;22;20943;-82
2021/08/08 19:53:37;;;;;;;7.20;4.40;;;18.50;98.30;;;;;;5204388;22;20823;-81
2021/08/08 19:55:40;;;;;;;11.27;5.20;;;18.60;98.30;;;;;;5203343;22;20446;-81
2021/08/08 19:57:44;;;;;;;7.47;5.10;;;18.50;98.30;;;;;;5202280;22;20968;-81
2021/08/08 19:59:50;;;;;;;8.00;4.43;;;18.50;98.30;;;;;;5203927;22;20423;-81
2021/08/08 20:01:53;;;;;;;4.87;4.30;;;18.40;98.30;;;;;;5203141;22;20434;-81
2021/08/08 20:03:57;;;;;;;6.67;4.60;;;18.40;98.30;;;;;;5203875;22;20443;-82
2021/08/08 20:06:03;;;;;;;7.67;4.60;;;18.40;98.30;;;;;;5195573;22;20498;-82
2021/08/08 20:08:06;;;;;;;7.03;4.53;;;18.40;98.30;;;;;;5203799;22;20441;-81
2021/08/08 20:10:11;;;;;;;8.43;4.40;;;18.40;98.30;;;;;;5195569;22;20431;-81
2021/08/08 20:12:14;;;;;;;9.20;4.33;;;18.40;98.30;;;;;;5204069;22;21198;-81
2021/08/08 20:14:18;;;;;;;9.33;4.47;;;18.40;98.30;;;;;;5195901;22;20934;-82
2021/08/08 20:16:32;;;;;;;7.77;4.50;;;18.30;98.30;;;;;;5203364;22;20426;-82
2021/08/08 20:18:51;;;;;;;6.10;4.40;;;18.30;98.30;;;;;;5200279;22;20442;-82
2021/08/08 20:20:54;;;;;;;9.93;5.03;;;18.30;98.30;;;;;;5200936;22;20427;-82
2021/08/08 20:22:57;;;;;;;5.40;4.30;;;18.30;98.30;;;;;;5201053;22;20490;-81
2021/08/08 20:25:01;;;;;;;7.27;4.50;;;18.20;98.30;;;;;;5193686;22;21209;-82
2021/08/08 20:27:04;;;;;;;7.33;4.23;;;18.20;98.30;;;;;;5201897;22;20458;-81
2021/08/08 20:29:07;;;;;;;14.43;4.50;;;18.20;98.30;;;;;;5194032;22;20446;-81
2021/08/08 20:31:10;;;;;;;7.50;4.40;;;18.20;98.30;;;;;;5194064;22;20503;-82
2021/08/08 20:33:15;;;;;;;7.60;4.17;;;18.10;98.30;;;;;;5202290;22;20427;-81
2021/08/08 20:35:19;;;;;;;7.00;4.57;;;18.10;98.30;;;;;;5193182;22;20510;-81
2021/08/08 20:37:22;;;;;;;8.53;4.60;;;18.20;98.30;;;;;;5201653;22;20422;-81
2021/08/08 20:39:27;;;;;;;7.53;4.67;;;18.10;98.30;;;;;;5193950;22;20583;-80
2021/08/08 20:41:30;;;;;;;7.50;4.43;;;18.10;98.30;;;;;;5194128;22;20430;-82
2021/08/08 20:43:33;;;;;;;6.13;4.13;;;18.00;98.30;;;;;;5193978;22;20505;-81
2021/08/08 20:45:36;;;;;;;9.30;4.70;;;18.00;98.30;;;;;;5202023;22;20423;-82
2021/08/08 20:47:39;;;;;;;6.60;4.70;;;18.00;98.30;;;;;;5202047;22;20407;-81
2021/08/08 20:49:44;;;;;;;5.40;4.40;;;18.00;98.30;;;;;;5194375;22;20735;-81
2021/08/08 20:51:46;;;;;;;6.90;4.90;;;17.90;98.30;;;;;;5202279;22;20419;-81
2021/08/08 20:53:49;;;;;;;5.30;4.73;;;17.90;98.30;;;;;;5202340;22;20426;-82
2021/08/08 20:55:52;;;;;;;6.70;4.67;;;17.90;98.30;;;;;;5193854;22;20427;-80
2021/08/08 20:57:55;;;;;;;5.77;4.40;;;17.90;98.30;;;;;;5193327;22;20447;-81
2021/08/08 20:59:58;;;;;;;7.70;4.50;;;17.80;98.30;;;;;;5203110;22;20927;-81
2021/08/08 21:02:01;;;;;;;7.20;5.23;;;17.80;98.30;;;;;;5202443;22;20438;-81
2021/08/08 21:04:04;;;;;;;6.50;5.10;;;17.70;98.30;;;;;;5193966;22;20470;-81
2021/08/08 21:06:09;;;;;;;5.40;4.20;;;17.70;98.30;;;;;;5194707;22;20749;-81
2021/08/08 21:08:12;;;;;;;6.73;4.83;;;17.70;98.30;;;;;;5194051;22;20449;-80
2021/08/08 21:10:16;;;;;;;5.70;4.13;;;17.60;98.30;;;;;;5194501;22;20451;-81
2021/08/08 21:12:19;;;;;;;6.43;4.40;;;17.60;98.30;;;;;;5194012;22;20427;-80
2021/08/08 21:14:22;;;;;;;6.83;4.40;;;17.50;98.30;;;;;;5194380;22;20745;-80
2021/08/08 21:16:25;;;;;;;4.90;4.33;;;17.50;98.30;;;;;;5202852;22;20430;-81
2021/08/08 21:18:28;;;;;;;5.33;4.40;;;17.50;98.30;;;;;;5194277;22;20493;-81
2021/08/08 21:20:31;;;;;;;9.07;4.33;;;17.50;98.30;;;;;;5203696;22;20421;-81
2021/08/08 21:22:35;;;;;;;5.67;3.97;;;17.40;98.30;;;;;;5202897;22;20510;-81
2021/08/08 21:24:39;;;;;;;7.10;4.77;;;17.40;98.30;;;;;;5195113;22;20450;-81
2021/08/08 21:26:45;;;;;;;7.37;4.30;;;17.40;98.30;;;;;;5193963;22;20418;-81
2021/08/08 21:28:48;;;;;;;7.27;4.50;;;17.40;98.30;;;;;;5202325;22;20525;-81
2021/08/08 21:30:51;;;;;;;6.90;4.70;;;17.30;98.30;;;;;;5195265;22;20470;-80
2021/08/08 21:32:54;;;;;;;5.43;4.30;;;17.30;98.30;;;;;;5203496;22;20457;-81
2021/08/08 21:34:58;;;;;;;5.50;4.40;;;17.20;98.30;;;;;;5194089;22;20485;-81
2021/08/08 21:37:01;;;;;;;5.90;4.10;;;17.20;98.30;;;;;;5195107;22;21185;-81
2021/08/08 21:39:05;;;;;;;4.90;3.90;;;17.20;98.30;;;;;;5203089;22;20442;-81
2021/08/08 21:41:08;;;;;;;6.10;4.50;;;17.20;98.30;;;;;;5194261;22;20433;-81
2021/08/08 21:43:11;;;;;;;9.13;3.90;;;17.10;98.30;;;;;;5193701;22;20458;-82
2021/08/08 21:45:14;;;;;;;5.63;4.00;;;17.10;98.30;;;;;;5194579;22;20433;-81
2021/08/08 21:47:17;;;;;;;5.80;4.50;;;17.10;98.30;;;;;;5194102;22;20427;-81
2021/08/08 21:49:21;;;;;;;5.57;4.10;;;17.10;98.30;;;;;;5194103;22;20530;-81
2021/08/08 21:51:24;;;;;;;6.27;4.10;;;17.00;98.30;;;;;;5194095;22;20991;-81
2021/08/08 21:53:27;;;;;;;6.80;4.07;;;17.00;98.30;;;;;;5195600;22;20433;-81
2021/08/08 21:55:31;;;;;;;6.53;4.53;;;17.00;98.30;;;;;;5195541;22;20449;-81
2021/08/08 21:57:34;;;;;;;9.70;4.30;;;16.90;98.30;;;;;;5194038;22;20434;-81
2021/08/08 21:59:39;;;;;;;7.33;4.10;;;16.90;98.30;;;;;;5202273;22;20470;-81
2021/08/08 22:01:42;;;;;;;6.90;4.30;;;16.80;98.30;;;;;;5194641;22;20423;-81
2021/08/08 22:03:45;;;;;;;8.23;4.30;;;16.80;98.30;;;;;;5194551;22;20509;-81
2021/08/08 22:05:52;;;;;;;7.53;4.10;;;16.80;98.30;;;;;;5194437;22;20461;-81
2021/08/08 22:07:55;;;;;;;6.60;4.10;;;16.80;98.30;;;;;;5193468;22;20454;-80
2021/08/08 22:10:00;;;;;;;5.33;4.20;;;16.80;98.30;;;;;;5194454;22;20505;-81
2021/08/08 22:12:08;;;;;;;8.57;4.47;;;16.70;98.30;;;;;;5194664;22;20501;-80
2021/08/08 22:14:11;;;;;;;5.60;4.53;;;16.70;98.30;;;;;;5194347;22;20417;-81
2021/08/08 22:16:14;;;;;;;6.50;4.27;;;16.60;98.30;;;;;;5194393;22;20422;-81
2021/08/08 22:18:17;;;;;;;5.77;4.03;;;16.60;98.30;;;;;;5193844;22;20520;-81
2021/08/08 22:20:20;;;;;;;6.03;4.03;;;16.60;98.30;;;;;;5194116;22;20423;-81
2021/08/08 22:22:24;;;;;;;4.57;3.83;;;16.60;98.30;;;;;;5194262;22;20433;-81
2021/08/08 22:24:27;;;;;;;6.43;3.93;;;16.50;98.30;;;;;;5194202;22;20423;-80
2021/08/08 22:26:29;;;;;;;5.33;4.10;;;16.50;98.30;;;;;;5202050;22;20427;-81
2021/08/08 22:28:34;;;;;;;3.57;3.27;;;16.50;98.30;;;;;;5202413;22;20442;-81
2021/08/08 22:30:37;;;;;;;4.00;3.53;;;16.50;98.30;;;;;;5193767;22;20430;-81
2021/08/08 22:32:40;;;;;;;4.43;3.60;;;16.40;98.30;;;;;;5194002;22;20514;-81
2021/08/08 22:34:43;;;;;;;3.80;3.40;;;16.50;98.30;;;;;;5202485;22;20513;-81
2021/08/08 22:36:46;;;;;;;4.30;3.37;;;16.40;98.30;;;;;;5202320;22;20429;-80
2021/08/08 22:38:49;;;;;;;6.00;3.60;;;16.40;98.30;;;;;;5193190;22;20447;-80
2021/08/08 22:40:52;;;;;;;3.97;3.30;;;16.40;98.30;;;;;;5201863;22;20783;-80
2021/08/08 22:42:55;;;;;;;4.03;3.30;;;16.30;98.30;;;;;;5201282;22;20422;-80
2021/08/08 22:45:00;;;;;;;3.80;3.10;;;16.30;98.30;;;;;;5202640;22;20429;-81
2021/08/08 22:47:03;;;;;;;4.73;3.30;;;16.30;98.30;;;;;;5193909;22;20423;-81
2021/08/08 22:49:06;;;;;;;5.73;3.87;;;16.30;98.30;;;;;;5194438;22;20457;-81
2021/08/08 22:51:09;;;;;;;5.63;3.47;;;16.20;98.30;;;;;;5204147;22;20538;-81
2021/08/08 22:53:12;;;;;;;4.63;3.50;;;16.20;98.30;;;;;;5203324;22;20422;-81
2021/08/08 22:55:15;;;;;;;3.90;3.40;;;16.20;98.30;;;;;;5195072;22;20423;-80
2021/08/08 22:57:18;;;;;;;3.83;3.30;;;16.10;98.30;;;;;;5193679;22;20431;-80
2021/08/08 22:59:21;;;;;;;4.23;3.10;;;16.10;98.30;;;;;;5194852;22;20510;-81
2021/08/08 23:01:26;;;;;;;3.77;3.27;;;16.10;98.30;;;;;;5203072;22;20522;-80
2021/08/08 23:03:29;;;;;;;3.23;2.77;;;16.10;98.30;;;;;;5202228;22;20465;-80
2021/08/08 23:05:32;;;;;;;5.40;3.13;;;16.10;98.30;;;;;;5194973;22;20427;-81
2021/08/08 23:07:35;;;;;;;3.50;3.20;;;16.10;98.30;;;;;;5202369;22;20429;-81
2021/08/08 23:09:38;;;;;;;3.60;3.30;;;16.00;98.30;;;;;;5203545;22;20423;-81
2021/08/08 23:11:41;;;;;;;4.30;3.17;;;16.00;98.30;;;;;;5193042;22;20435;-81
2021/08/08 23:13:44;;;;;;;3.33;3.03;;;16.00;98.30;;;;;;5201543;22;20425;-81
2021/08/08 23:15:47;;;;;;;3.90;3.50;;;16.00;98.30;;;;;;5201104;22;20426;-81
2021/08/08 23:17:51;;;;;;;4.97;3.43;;;16.00;98.30;;;;;;5192643;22;20815;-81
2021/08/08 23:19:54;;;;;;;5.33;3.43;;;16.00;98.30;;;;;;5193336;22;20500;-80
2021/08/08 23:21:57;;;;;;;4.60;3.50;;;16.00;98.30;;;;;;5201290;22;20427;-82
2021/08/08 23:24:00;;;;;;;8.33;3.10;;;16.00;98.30;;;;;;5193516;22;20422;-81
2021/08/08 23:26:03;;;;;;;4.43;3.37;;;16.00;98.30;;;;;;5201163;22;20430;-81
2021/08/08 23:28:08;;;;;;;4.73;3.40;;;16.00;98.30;;;;;;5192523;22;20451;-81
2021/08/08 23:30:11;;;;;;;6.87;3.27;;;16.00;98.30;;;;;;5193381;22;20744;-81
2021/08/08 23:32:15;;;;;;;5.20;3.50;;;15.90;98.30;;;;;;5201299;22;20419;-82
2021/08/08 23:34:20;;;;;;;4.30;3.20;;;15.90;98.30;;;;;;5193244;22;20815;-81
2021/08/08 23:36:23;;;;;;;10.60;3.70;;;15.90;98.30;;;;;;5201254;22;20426;-81
2021/08/08 23:38:26;;;;;;;5.87;3.67;;;15.90;98.30;;;;;;5201284;22;20557;-81
2021/08/08 23:40:29;;;;;;;4.20;3.20;;;15.80;98.30;;;;;;5193240;22;20955;-81
2021/08/08 23:42:32;;;;;;;5.33;3.70;;;15.80;98.30;;;;;;5200602;22;20426;-81
2021/08/08 23:44:35;;;;;;;4.00;3.57;;;15.70;98.30;;;;;;5192597;22;20429;-81
2021/08/08 23:46:38;;;;;;;3.83;3.07;;;15.70;98.30;;;;;;5201113;22;20543;-82
2021/08/08 23:48:44;;;;;;;4.77;3.47;;;15.70;98.30;;;;;;5211795;22;20462;-80
